Terminal Aerodrome Forecast
Issued by NWS

Home | Current Version | Previous Version | Text Only | Print | Product List | Glossary On
Versions: 1 2 3 4 5 6 7 8 9 10 11 12 13 14 15
226
FTUS43 KLSX 221720
TAFUIN
TAF
KUIN 221720Z 2218/2318 18012KT P6SM BKN025
     FM222000 19010KT P6SM BKN040
     FM230700 21008KT P6SM VCTS OVC040CB
     FM230900 23009KT P6SM -SHRA VCTS OVC040CB
     FM231200 32009KT P6SM BKN010
     FM231400 34011KT P6SM BKN035
     FM231500 35011G18KT P6SM BKN030=

USA.gov is the U.S. government's official web portal to all federal, state and local government web resources and services.